x

9449880 - Friday Harbor, Wa (frdw1) Weather Station

1:36 - Wed 31st Aug 2016 All times are PDT. -7 hours from GMT.

  • Wind
    1mph, 3mph gusts
  • Sea Temp 53°f
  • Aire Temp 60°f
  • Sea Pressure 1014.7mb
  • 9449880 - Friday Harbor, Wa
  • 9449880 - Friday Harbor, Wa

More Historic Weather Station data

Upgrade to MSW Pro to gain access to the past 30 days of data for over 8000 Wavebouys and Weather Stations around the globe.

Join Pro

Comparision Forecast

View Surf forecast
   
mié 08/31 1:36 1 3 mph 1014.7mb 53f 60f
1:30 2 5 mph 1014.8mb 53f 60f
1:24 2 6 mph 1014.8mb 53f 60f
1:18 3 6 mph 1014.7mb 53f 60f
1:12 2 6 mph 1014.6mb 53f 60f
1:06 3 6 mph 1014.6mb 53f 59f
1:00 6 9 mph 1014.7mb 53f 60f
12:36  -  1 mph 1014.6mb 53f 61f
12:30  -  3 mph 1014.6mb 53f 60f
12:24 1 3 mph 1014.6mb 53f 59f
12:18 2 3 mph 1014.5mb 53f 59f
12:12 2
mph
1014.5mb 53f 59f
12:06 2 3 mph 1014.4mb 53f 59f
12:00 2 5 mph 1014.4mb 53f 59f
11:36 2
mph
1014.4mb 53f 58f
11:30 1 2 mph 1014.4mb 53f 59f
11:24  -  2 mph 1014.5mb 53f 59f
11:18 1 3 mph 1014.3mb 53f 59f
11:12 1 2 mph 1014.4mb 53f 59f
11:06  -  1 mph 1014.4mb 53f 59f
11:00  -  2 mph 1014.5mb 53f 58f
10:36 2 5 mph 1014.3mb 53f 58f
10:30 2 5 mph 1014.4mb 53f 58f
10:24 1 5 mph 1014.3mb 53f 58f
10:18  -  2 mph 1014.3mb 53f 58f
10:12 1 2 mph 1014.3mb 53f 58f
10:06 2 5 mph 1014.1mb 53f 58f
10:00 2 3 mph 1014.1mb 53f 57f
9:36 1 2 mph 1014.1mb 53f 57f
9:30  -  1 mph 1014.1mb 53f 57f
9:24  -  3 mph 1014.1mb 53f 57f
9:18 2 3 mph 1014.1mb 53f 57f
9:12 3 6 mph 1013.9mb 53f 57f
9:06 5 6 mph 1013.8mb 53f 57f
9:00 3 5 mph 1013.9mb 53f 57f
8:36 2 3 mph 1013.9mb 52f 57f
8:30  -  1 mph 1014.1mb 52f 56f
8:24 1 2 mph 1014.2mb 52f 56f
8:18 2 5 mph 1014.1mb 52f 57f
8:12 3 5 mph 1014.1mb 52f 56f
8:06 2 5 mph 1014.1mb 52f 56f
8:00 1 2 mph 1014.2mb 52f 55f
7:36  -  2 mph 1014.3mb 53f 56f
7:30  -  2 mph 1014.1mb 53f 56f
7:24  -  1 mph 1013.9mb 53f 56f
7:18  -  1 mph 1013.9mb 53f 56f
7:12  -  1 mph 1013.9mb 53f 56f
7:06  -  2 mph 1013.9mb 53f 56f
7:00 1 3 mph 1013.9mb 53f 56f
6:36 1 2 mph 1013.9mb 53f 56f
6:30  -  1 mph 1013.9mb 53f 56f
6:24  -  1 mph 1013.8mb 53f 56f
6:18  -  1 mph 1013.8mb 53f 56f
6:12  -  1 mph 1013.9mb 53f 56f
6:06  -  mph 1013.8mb 53f 56f
6:00  -  mph 1013.9mb 53f 56f
5:36  -  1 mph 1013.9mb 52f 56f
5:30  -  mph 1013.8mb 53f 56f
5:24  -  mph 1013.9mb 53f 56f
5:18  -  mph 1013.8mb 53f 56f
5:12  -  1 mph 1013.9mb 53f 56f
5:06  -  1 mph 1013.9mb 53f 56f
5:00  -  1 mph 1013.9mb 53f 56f
4:36  -  1 mph 1014mb 53f 56f
4:30  -  1 mph 1014mb 53f 56f
4:24  -  1 mph 1014mb 53f 56f
4:18  -  1 mph 1014.2mb 53f 56f
4:12 1 2 mph 1014.3mb 53f 55f
4:06  -  1 mph 1014.2mb 53f 55f
4:00 2 5 mph 1014.3mb 53f 55f
3:36 1 3 mph 1014.4mb 53f 56f
3:30 3 5 mph 1014.5mb 53f 56f
3:24 5 6 mph 1014.5mb 53f 57f
3:18 2 3 mph 1014.5mb 53f 57f
3:12 2 3 mph 1014.3mb 53f 57f
3:06 3 5 mph 1014.3mb 53f 57f
3:00 2 3 mph 1014.2mb 53f 57f
2:36  -  3 mph 1014.1mb 53f 58f
2:30 1 2 mph 1014.1mb 53f 58f
2:24 2 3 mph 1014.1mb 53f 58f
2:18 1 3 mph 1014.1mb 53f 58f
2:12  -  2 mph 1014.1mb 53f 59f
2:06  -  2 mph 1014.1mb 53f 59f
2:00  -  2 mph 1014mb 53f 59f
1:36 2 3 mph 1014.1mb 53f 60f
1:30 2 3 mph 1014.2mb 53f 60f
1:24 1 2 mph 1014.2mb 53f 60f
1:18  -  1 mph 1014.3mb 53f 60f
1:12  -  1 mph 1014.3mb 53f 60f
1:06  -  1 mph 1014.3mb 53f 59f
1:00  -  1 mph 1014.3mb 53f 59f
12:36  -  1 mph 1014.4mb 53f 59f
12:30 1 2 mph 1014.5mb 53f 60f
12:24  -  1 mph 1014.5mb 53f 59f
12:18  -  3 mph 1014.6mb 53f 58f
12:12  -  mph 1014.6mb 53f 59f
12:06  -  1 mph 1014.6mb 53f 60f
12:00  -  2 mph 1014.7mb 53f 59f
mar 08/30 11:36  -  mph 1014.7mb 53f 59f
11:30  -  1 mph 1014.7mb 53f 59f
11:24  -  1 mph 1014.6mb 53f 59f
11:18  -  1 mph 1014.6mb 53f 59f
11:12  -  1 mph 1014.6mb 53f 58f
11:06  -  1 mph 1014.7mb 53f 59f
11:00  -  2 mph 1014.6mb 53f 59f
10:36  -  mph 1014.8mb 53f 59f
10:30  -  1 mph 1014.7mb 53f 59f
10:24  -  mph 1014.7mb 53f 59f
10:18  -  1 mph 1014.8mb 53f 59f
10:12 1 2 mph 1014.9mb 53f 59f
10:06  -  1 mph 1014.8mb 53f 59f
10:00  -  1 mph 1014.8mb 53f 60f
9:36 2 5 mph 1014.9mb 53f 62f
9:30 5 6 mph 1014.8mb 53f 62f
9:24 5 6 mph 1014.8mb 53f 62f
9:18 2 3 mph 1014.8mb 53f 61f
9:12 3 6 mph 1014.9mb 53f 61f
9:06 6 9 mph 1014.9mb 53f 61f
9:00 6 9 mph 1014.8mb 53f 62f
8:36 8 11 mph 1014.8mb 53f 61f
8:30 7 10 mph 1014.7mb 53f 61f
8:24 7 11 mph 1014.7mb 53f 61f
8:18 7 10 mph 1014.7mb 53f 61f
8:12 7 11 mph 1014.6mb 52f 60f
8:06 6 9 mph 1014.5mb 52f 60f
8:00 7 13 mph 1014.5mb 52f 60f
7:36 7 9 mph 1014.3mb 52f 60f
7:30 7 11 mph 1014.3mb 52f 61f
7:24 7 10 mph 1014.3mb 52f 61f
7:18 6 9 mph 1014.3mb 52f 62f
7:12 6 9 mph 1014.2mb 52f 62f
7:06 5 8 mph 1014.3mb 52f 62f
7:00 6 8 mph 1014.3mb 52f 62f
6:36 7 9 mph 1014.3mb 52f 64f
6:30 7 9 mph 1014.3mb 52f 64f
6:24 6 11 mph 1014.4mb 52f 64f
6:18 7 10 mph 1014.5mb 52f 64f
6:12 7 13 mph 1014.5mb 52f 64f
6:06 8 13 mph 1014.5mb 52f 64f
6:00 7 11 mph 1014.5mb 53f 64f
5:36 5 7 mph 1014.8mb 53f 62f
5:30 6 9 mph 1014.8mb 53f 62f
5:24 5 7 mph 1014.8mb 53f 62f
5:18 5 8 mph 1014.7mb 53f 62f
5:12 5 7 mph 1014.7mb 53f 62f
5:06 5 7 mph 1014.6mb 53f 62f
5:00 6 10 mph 1014.7mb 53f 62f
4:36 2 7 mph 1014.9mb 53f 62f
4:30 5 9 mph 1015mb 53f 61f
4:24 5 8 mph 1015mb 53f 61f
4:18 5 7 mph 1015.1mb 53f 61f
4:12 5 7 mph 1015.1mb 53f 61f
4:06 3 6 mph 1015mb 53f 61f
4:00 3 6 mph 1015mb 53f 61f
3:36 6 10 mph 1015.1mb 52f 61f
3:30 6 10 mph 1015.1mb 52f 61f
3:24 6 9 mph 1015.1mb 52f 61f
3:18 6 9 mph 1015.1mb 52f 61f
3:12 7 14 mph 1015.1mb 52f 61f
3:06 10 13 mph 1015.1mb 52f 61f
3:00 6 8 mph 1015.1mb 52f 61f
2:36 6 9 mph 1015.3mb 52f 60f
2:30 7 10 mph 1015.3mb 52f 60f
2:24 6 9 mph 1015.3mb 53f 60f
2:18 8 9 mph 1015.4mb 53f 60f
2:12 7 11 mph 1015.4mb 53f 60f
2:06 7 10 mph 1015.5mb 53f 60f
2:00 7 11 mph 1015.6mb 53f 60f
1:54 6 10 mph 1015.7mb 53f 60f
1:48 6 9 mph 1015.8mb 53f 60f
1:36 8 13 mph 1015.8mb 53f 60f
1:30 8 14 mph 1015.8mb 53f 60f
1:24 8 15 mph 1015.8mb 53f 60f
1:18 10 15 mph 1015.8mb 53f 60f
1:12 8 13 mph 1015.8mb 53f 60f
1:06 10 13 mph 1015.8mb 53f 60f
1:00 8 17 mph 1015.9mb 53f 61f
12:54 10 15 mph 1015.8mb 53f 60f
12:48 10 16 mph 1015.8mb 53f 60f
12:36 9 13 mph 1015.8mb 53f 60f
12:30 5 13 mph 1015.8mb 53f 60f
12:24 8 13 mph 1015.9mb 53f 60f
12:18 8 11 mph 1015.8mb 53f 60f
12:12 7 10 mph 1015.8mb 53f 60f
12:06 7 10 mph 1015.8mb 53f 60f
12:00 7 10 mph 1015.9mb 53f 60f
11:36 5 9 mph 1016mb 53f 60f
11:30 3 9 mph 1016.1mb 53f 60f
11:24 5 8 mph 1016.1mb 53f 60f
11:18 6 10 mph 1016.2mb 53f 60f
11:12 5 10 mph 1016.2mb 53f 59f
11:06 5 8 mph 1016.2mb 53f 59f
11:00 7 9 mph 1016.3mb 53f 59f
10:54 6 9 mph 1016.2mb 53f 59f
10:48 5 7 mph 1016.2mb 53f 59f
10:36 2 5 mph 1016.3mb 53f 57f
10:30 2 5 mph 1016.3mb 53f 57f
10:24 2 5 mph 1016.3mb 53f 58f
10:18 3 6 mph 1016.3mb 53f 58f
10:12 5 7 mph 1016.4mb 53f 58f
10:06 3 5 mph 1016.5mb 53f 58f
10:00 2 3 mph 1016.6mb 53f 57f
9:54 2 6 mph 1016.5mb 53f 58f
9:48 2 3 mph 1016.5mb 53f 58f
9:36 5
mph
1016.6mb 53f 57f
9:30 3 5 mph 1016.6mb 53f 57f
9:24 2 5 mph 1016.6mb 53f 56f
9:18  -  2 mph 1016.6mb 53f 56f
9:12 1 2 mph 1016.6mb 53f 56f
9:06 2 3 mph 1016.7mb 53f 56f
9:00  -  2 mph 1016.6mb 53f 56f
8:54 1 3 mph 1016.6mb 53f 56f
8:48 1 3 mph 1016.7mb 53f 56f
8:36 3 6 mph 1016.8mb 53f 56f
8:30 2 5 mph 1016.8mb 53f 56f
8:24 2 5 mph 1016.8mb 53f 56f
8:18 5 6 mph 1016.8mb 53f 56f
8:12 3 5 mph 1016.7mb 53f 56f
8:06 3 5 mph 1016.8mb 53f 55f
8:00 2 5 mph 1016.9mb 53f 56f
7:54 3 6 mph 1016.9mb 53f 56f
7:48 5 6 mph 1016.9mb 53f 56f
7:36 6 8 mph 1017mb 53f 56f
7:30 6 8 mph 1016.9mb 53f 56f
7:24 6 8 mph 1016.9mb 53f 56f
7:18 5 7 mph 1016.8mb 53f 56f
7:12 3 7 mph 1016.8mb 53f 56f
7:06 3 6 mph 1016.7mb 53f 56f
7:00 3 7 mph 1016.7mb 53f 56f
6:54 6 8 mph 1016.7mb 53f 57f
6:48 7 10 mph 1016.7mb 53f 57f
6:36 5 8 mph 1016.6mb 53f 57f
6:30 6 9 mph 1016.6mb 53f 56f
6:24 6 10 mph 1016.6mb 53f 56f
6:18 6 9 mph 1016.6mb 53f 56f
6:12 8 10 mph 1016.6mb 53f 56f
6:06 8 10 mph 1016.6mb 53f 56f
6:00 7 10 mph 1016.5mb 53f 56f
5:36 6 10 mph 1016.5mb 53f 57f
5:30 8 13 mph 1016.5mb 53f 57f
5:24 5 9 mph 1016.5mb 53f 57f
5:18 3 8 mph 1016.5mb 53f 56f
5:12 2 7 mph 1016.5mb 53f 56f
5:06 6 11 mph 1016.5mb 53f 56f
5:00 3 10 mph 1016.6mb 53f 56f
4:54 8 13 mph 1016.5mb 53f 55f
4:48 6 9 mph 1016.5mb 53f 55f
4:36 2 5 mph 1016.6mb 53f 55f
4:30 2 5 mph 1016.6mb 53f 54f
4:24 3 6 mph 1016.6mb 53f 54f
4:18 1 3 mph 1016.5mb 53f 54f
4:12 1 3 mph 1016.5mb 53f 54f
4:06 1 3 mph 1016.5mb 53f 54f
4:00  -  2 mph 1016.5mb 53f 54f
3:54 2 5 mph 1016.5mb 53f 54f
3:48 3 5 mph 1016.4mb 53f 54f
3:36  -  1 mph 1016.4mb 53f 53f
3:30  -  mph 1016.4mb 53f 54f
3:24  -  1 mph 1016.3mb 53f 54f
3:18  -  2 mph 1016.3mb 53f 54f
3:12  -  2 mph 1016.3mb 53f 53f
3:06  -  1 mph 1016.3mb 53f 53f
3:00  -  mph 1016.2mb 53f 53f
2:54  -  1 mph 1016.2mb 53f 53f
2:48  -  1 mph 1016.2mb 53f 53f
2:36 1
mph
1016.1mb 53f 53f
2:30  -  1 mph 1016mb 53f 53f
2:24 1 2 mph 1016mb 53f 54f
2:18  -  1 mph 1016mb 53f 53f
2:12  -  1 mph 1015.9mb 53f 53f
2:06  -  1 mph 1015.8mb 53f 53f
2:00  -  1 mph 1015.8mb 53f 53f
1:54  -  2 mph 1015.8mb 53f 53f
1:48  -  2 mph 1015.8mb 53f 53f
1:36  -  1 mph 1015.7mb 53f 54f
1:30  -  1 mph 1015.7mb 53f 54f
1:24  -  2 mph 1015.6mb 53f 54f
1:18 1 2 mph 1015.7mb 53f 55f
1:12  -  1 mph 1015.7mb 53f 54f
1:06  -  1 mph 1015.8mb 53f 54f
1:00  -  1 mph 1015.7mb 53f 54f
12:54  -  1 mph 1015.7mb 53f 54f
12:48  -  1 mph 1015.7mb 53f 54f
12:36  -  2 mph 1015.6mb 53f 54f
12:30 1
mph
1015.5mb 53f 54f
12:24  -  1 mph 1015.5mb 53f 54f
12:18  -  mph 1015.5mb 53f 55f
12:12  -  mph 1015.5mb 53f 55f
12:06  -  1 mph 1015.5mb 53f 55f
12:00  -  mph 1015.5mb 53f 55f
lun 08/29 11:54  -  1 mph 1015.5mb 53f 55f
11:48  -  mph 1015.5mb 53f 55f
11:36  -  mph 1015.4mb 53f 55f
11:30  -  mph 1015.3mb 53f 55f
11:24  -  1 mph 1015.3mb 53f 55f
11:18  -  1 mph 1015.3mb 53f 55f
11:12 1 2 mph 1015.3mb 53f 55f
11:06 1 3 mph 1015.3mb 53f 56f
11:00 1 3 mph 1015.3mb 53f 56f
10:54 1 2 mph 1015.3mb 53f 56f
10:48 2 3 mph 1015.3mb 53f 55f
10:36 1 2 mph 1015.3mb 53f 56f
10:30 2
mph
1015.3mb 53f 56f
10:24 2 3 mph 1015.3mb 53f 56f
10:18 2 3 mph 1015.3mb 53f 57f
10:12 1 2 mph 1015.3mb 53f 57f
10:06  -  1 mph 1015.3mb 53f 57f
10:00  -  2 mph 1015.3mb 53f 57f
9:54  -  2 mph 1015.2mb 53f 57f
9:48 1 2 mph 1015.1mb 53f 57f
9:36  -  1 mph 1015mb 53f 57f
9:30 1 2 mph 1014.9mb 53f 57f
9:24 1 2 mph 1014.9mb 53f 56f
9:18 2 3 mph 1014.8mb 53f 56f
9:12 3
mph
1014.8mb 53f 56f
9:06 2 3 mph 1014.8mb 53f 56f
9:00 3 5 mph 1014.7mb 53f 56f
8:54 2 3 mph 1014.8mb 53f 56f
8:48 3 5 mph 1014.8mb 53f 56f
8:36 3 5 mph 1014.7mb 53f 56f
8:30 3 5 mph 1014.7mb 53f 56f
8:24 3 6 mph 1014.8mb 53f 56f
8:18 5 6 mph 1014.7mb 53f 56f
8:12 3 5 mph 1014.6mb 53f 56f
8:06 3
mph
1014.6mb 53f 57f
8:00  -  1 mph 1014.6mb 53f 57f
7:54 1 3 mph 1014.6mb 53f 58f
7:48 1 3 mph 1014.7mb 53f 58f
7:36 2 5 mph 1014.7mb 53f 58f
7:30 5 7 mph 1014.8mb 53f 58f
7:24 5 6 mph 1014.8mb 53f 58f
7:18 2 5 mph 1014.7mb 53f 58f
7:12 3 5 mph 1014.7mb 53f 58f
7:06 5 6 mph 1014.8mb 52f 58f
7:00 6
mph
1014.9mb 52f 58f
6:54 6 8 mph 1014.9mb 52f 58f
6:48 6 8 mph 1015mb 52f 59f
6:36 3 7 mph 1015mb 52f 60f
6:30 5 7 mph 1015mb 52f 60f
6:24 6 9 mph 1015.1mb 52f 60f
6:18 6 8 mph 1015.1mb 52f 60f
6:12 3 5 mph 1015.1mb 52f 61f
6:06 3 5 mph 1015.1mb 52f 61f
6:00 5 7 mph 1015.1mb 52f 61f
5:54 3 9 mph 1015.1mb 53f 62f
5:48 8 9 mph 1015.1mb 53f 62f
5:36 6 10 mph 1015.1mb 53f 62f
5:30 8 13 mph 1015.2mb 53f 62f
5:24 11
mph
1015.2mb 53f 62f
5:18 8 10 mph 1015.1mb 53f 63f
5:12 9 11 mph 1015.1mb 53f 63f
5:06 11 13 mph 1015.1mb 53f 63f
5:00 10 13 mph 1015.1mb 53f 64f
4:54 9 13 mph 1015.1mb 53f 64f
4:48 9 11 mph 1015.1mb 53f 64f
4:36 9 13 mph 1015.1mb 53f 66f
4:30 10 11 mph 1015.2mb 53f 66f
4:24 9 10 mph 1015.2mb 53f 65f
4:18 9 11 mph 1015.3mb 53f 66f
4:12 9 10 mph 1015.2mb 53f 66f
4:06 9 11 mph 1015.2mb 53f 67f
4:00 8 9 mph 1015.2mb 53f 66f
3:54 7 9 mph 1015.2mb 53f 67f
3:48 6 8 mph 1015.3mb 53f 66f
3:36 6 9 mph 1015.3mb 53f 67f
3:30 6 7 mph 1015.3mb 53f 67f
3:24 7 9 mph 1015.4mb 53f 67f
3:18 6 8 mph 1015.4mb 53f 66f
3:12 5 8 mph 1015.5mb 53f 66f
3:06 5 9 mph 1015.5mb 53f 66f
3:00 6 10 mph 1015.6mb 53f 66f
2:54 7 9 mph 1015.6mb 53f 66f
2:36 5 6 mph 1015.7mb 53f 65f
2:30 5 7 mph 1015.8mb 53f 66f
2:24 2 5 mph 1015.9mb 53f 65f
2:18 2 5 mph 1015.9mb 53f 65f
2:12  -  2 mph 1015.9mb 53f 62f
2:06 2 3 mph 1015.9mb 53f 62f
2:00 1 2 mph 1015.9mb 53f 62f
1:54 2
mph
1015.9mb 53f 62f
1:48 2
mph
1015.9mb 53f 63f
1:36 1 2 mph 1016.1mb 53f 62f
1:30 1 2 mph 1016.2mb 53f 61f
1:24 2 3 mph 1016.2mb 53f 60f
1:18 2 3 mph 1016.2mb 53f 61f
1:12 2
mph
1016.3mb 53f 61f
1:06 2 3 mph 1016.3mb 53f 60f
1:00 3
mph
1016.3mb 53f 59f
12:54 3
mph
1016.3mb 53f 59f
12:48 5
mph
1016.4mb 53f 58f
12:36 2 5 mph 1016.5mb 54f 57f
12:30 3 5 mph 1016.6mb 54f 56f
12:24 1 2 mph 1016.7mb 54f 57f
12:18 2 3 mph 1016.8mb 54f 58f
12:12 2 3 mph 1016.8mb 54f 57f
12:06 1 2 mph 1016.9mb 54f 57f
12:00 2 3 mph 1016.9mb 54f 56f
11:54 2
mph
1017mb 54f 56f
11:48  -  1 mph 1017.1mb 54f 57f
11:36 2 3 mph 1017.2mb 54f 55f
11:30 3
mph
1017.3mb 53f 55f
11:24 2
mph
1017.3mb 53f 55f
11:18 2 3 mph 1017.4mb 53f 55f
11:12 3
mph
1017.5mb 53f 55f
11:06 2 3 mph 1017.5mb 53f 55f
11:00 3
mph
1017.6mb 53f 55f
10:54 2 3 mph 1017.7mb 53f 55f
10:48 2 3 mph 1017.8mb 53f 55f
10:36 1 2 mph 1017.8mb 53f 55f
10:30 1 2 mph 1017.9mb 53f 54f
10:24 2 3 mph 1017.9mb 53f 55f
10:18 2 5 mph 1018mb 53f 54f
10:12 5 6 mph 1017.9mb 53f 54f
10:06 6 7 mph 1018mb 53f 54f
10:00 6 7 mph 1018.1mb 53f 53f
9:54 6 7 mph 1018.1mb 53f 53f
9:48 2 5 mph 1018.1mb 53f 53f
9:36 1 3 mph 1018.1mb 53f 53f
9:30 2 3 mph 1018.1mb 53f 53f
9:24 2 3 mph 1018.1mb 53f 52f
9:18 2 3 mph 1018.2mb 53f 52f
9:12 1 2 mph 1018.3mb 53f 53f
9:06  -  1 mph 1018.3mb 53f 52f
9:00  -  1 mph 1018.4mb 53f 52f
8:54  -  1 mph 1018.4mb 53f 52f
8:48  -  1 mph 1018.4mb 53f 52f
8:36 2 3 mph 1018.4mb 53f 52f
8:30 2
mph
1018.3mb 53f 52f
8:24 2 3 mph 1018.3mb 53f 51f
8:18 2
mph
1018.4mb 53f 51f
8:12 2 3 mph 1018.3mb 53f 52f
8:06 2 3 mph 1018.3mb 53f 52f
8:00 1 2 mph 1018.3mb 53f 52f
7:54 1 2 mph 1018.3mb 53f 51f
7:48 2 3 mph 1018.4mb 53f 51f
7:36 2 3 mph 1018.5mb 53f 51f
7:30 3 5 mph 1018.5mb 53f 51f
7:24 3 5 mph 1018.4mb 53f 51f
7:18 2 5 mph 1018.5mb 53f 51f
7:12 2 5 mph 1018.4mb 53f 51f
7:06 1 3 mph 1018.4mb 53f 51f
7:00 1 3 mph 1018.3mb 53f 51f
6:36 2
mph
1018.2mb 53f 50f
6:30 2
mph
1018.2mb 53f 50f
6:24 2
mph
1018.1mb 53f 50f
6:18 2 3 mph 1018.1mb 53f 51f
6:12 2
mph
1018mb 53f 51f
6:06 2 3 mph 1018mb 53f 51f
6:00 1 3 mph 1018mb 53f 51f
5:54 2 3 mph 1017.9mb 53f 51f
5:48 1 3 mph 1017.9mb 53f 51f
5:36 3
mph
1017.9mb 53f 51f
5:30 3
mph
1017.9mb 53f 51f
5:24 2 3 mph 1017.8mb 53f 51f
5:18 3
mph
1017.9mb 53f 51f
5:12 2 3 mph 1017.9mb 53f 51f
5:06 2 3 mph 1017.8mb 53f 51f
5:00 3 5 mph 1017.8mb 53f 51f
4:54 2 5 mph 1017.9mb 53f 51f
4:48 3
mph
1017.9mb 53f 51f
4:36 2
mph
1018mb 53f 51f
4:30 2 3 mph 1018mb 53f 51f
4:24 2 3 mph 1017.9mb 53f 51f
4:18 2 3 mph 1017.9mb 53f 51f
4:12 1 2 mph 1018mb 53f 51f
4:06 2 3 mph 1018mb 53f 51f
4:00 1 2 mph 1018.1mb 53f 51f
3:54  -  1 mph 1018mb 53f 51f
3:48  -  2 mph 1018mb 53f 51f
3:36 2 3 mph 1018mb 53f 51f
3:30 2
mph
1018mb 53f 51f
3:24  -  2 mph 1018mb 53f 51f
3:18 1 2 mph 1018mb 53f 51f
3:12  -  1 mph 1018mb 53f 52f
3:06  -  mph 1018mb 53f 52f
3:00  -  1 mph 1018mb 53f 51f
2:54 1 2 mph 1018mb 53f 51f
2:48 2
mph
1017.9mb 53f 51f
2:36 1 2 mph 1017.9mb 53f 51f
2:30 2
mph
1017.9mb 53f 51f
2:24 1 2 mph 1017.9mb 53f 51f
2:18 1 2 mph 1017.9mb 53f 51f
2:12 2
mph
1017.8mb 53f 52f
2:06 2
mph
1017.8mb 53f 53f
2:00 2 3 mph 1017.8mb 53f 53f
1:54 2
mph
1017.8mb 53f 53f
1:48 2
mph
1017.9mb 53f 53f
1:36  -  1 mph 1017.9mb 53f 53f
1:30  -  1 mph 1017.9mb 53f 53f
1:24  -  mph 1017.8mb 53f 53f
1:18  -  mph 1017.8mb 53f 53f
1:12  -  1 mph 1017.8mb 53f 53f
1:06 1 2 mph 1017.8mb 53f 53f
1:00  -  2 mph 1017.9mb 53f 53f
12:54  -  1 mph 1017.8mb 53f 53f
12:48  -  2 mph 1017.9mb 53f 53f
12:36  -  1 mph 1017.8mb 53f 53f
12:30  -  1 mph 1017.8mb 53f 54f
12:24  -  1 mph 1017.9mb 53f 53f
12:18  -  1 mph 1017.8mb 53f 54f
12:12  -  1 mph 1017.7mb 53f 54f
12:06  -  1 mph 1017.7mb 53f 54f
12:00  -  1 mph 1017.8mb 53f 54f
dom 08/28 11:36  -  mph 1017.9mb 53f 54f
11:30  -  mph 1017.9mb 53f 54f
11:24  -  mph 1017.9mb 53f 54f
11:18  -  1 mph 1017.9mb 53f 54f
11:12  -  mph 1017.9mb 53f 54f
11:06  -  mph 1018mb 53f 54f
11:00  -  1 mph 1018mb 53f 55f
10:54  -  mph 1018mb 53f 55f
10:48  -  mph 1017.9mb 53f 55f
10:36  -  mph 1017.9mb 53f 55f
10:30  -  mph 1017.9mb 53f 55f
10:24  -  2 mph 1018mb 53f 55f
10:18 1 2 mph 1017.9mb 53f 55f
10:12  -  mph 1018mb 53f 55f
10:06  -  mph 1018mb 53f 55f
10:00  -  1 mph 1018mb 53f 55f
9:54 1 2 mph 1018.1mb 53f 55f
9:48 1 2 mph 1018.1mb 53f 55f
9:36  -  1 mph 1018.1mb 53f 55f
9:30  -  1 mph 1018.2mb 53f 56f
9:24  -  2 mph 1018.3mb 53f 56f
9:18  -  1 mph 1018.3mb 53f 56f
9:12 1 2 mph 1018.3mb 53f 56f
9:06  -  1 mph 1018.2mb 53f 56f
9:00  -  2 mph 1018.2mb 53f 56f
8:54  -  6 mph 1018.3mb 53f 56f
8:48 2 7 mph 1018.4mb 53f 56f
8:36  -  2 mph 1018.2mb 53f 56f
8:30 2 7 mph 1018.2mb 53f 56f
8:24 1 5 mph 1018.4mb 53f 56f
8:18 1 3 mph 1018.5mb 53f 56f
8:12  -  2 mph 1018.5mb 53f 56f
8:06 1 2 mph 1018.5mb 53f 56f
8:00  -  1 mph 1018.5mb 53f 56f
7:54  -  1 mph 1018.4mb 53f 56f
7:48  -  1 mph 1018.3mb 53f 56f
7:36 1 6 mph 1018.4mb 53f 56f
7:30  -  2 mph 1018.3mb 53f 56f
7:24 2 3 mph 1018.6mb 53f 56f
7:18 2 3 mph 1018.5mb 53f 56f
7:12 1 2 mph 1018.5mb 53f 56f
7:06 1 2 mph 1018.3mb 53f 56f
7:00  -  1 mph 1018.3mb 53f 57f
6:54  -  1 mph 1018.2mb 53f 57f
6:48  -  1 mph 1018.3mb 53f 57f
6:36 1 3 mph 1018.4mb 53f 56f
6:30 2 3 mph 1018.5mb 53f 56f
6:24 1 2 mph 1018.7mb 53f 57f
6:18  -  6 mph 1019mb 53f 56f
6:12 3 6 mph 1019.1mb 53f 56f
6:06  -  1 mph 1018.8mb 53f 57f
6:00  -  2 mph 1018.9mb 53f 56f
5:54 1 2 mph 1019mb 53f 56f
5:48  -  2 mph 1019mb 53f 57f
5:36  -  2 mph 1019mb 53f 57f
5:30 2 3 mph 1019.1mb 53f 56f
5:24 3
mph
1019.2mb 53f 56f
5:18  -  1 mph 1019.4mb 53f 56f
5:12  -  2 mph 1019.5mb 53f 56f
5:06 2
mph
1019.4mb 53f 56f
5:00 1 2 mph 1019.4mb 53f 56f
4:54 1 2 mph 1019.5mb 53f 56f
4:48  -  1 mph 1019.3mb 53f 56f
4:36  -  2 mph 1019.3mb 53f 56f
4:30 1 3 mph 1019.3mb 53f 55f
4:24 3 5 mph 1019.3mb 53f 55f
4:18 3 5 mph 1019.3mb 53f 55f
4:12 2 3 mph 1019.4mb 53f 55f
4:06 1 3 mph 1019.5mb 53f 55f
4:00 1 3 mph 1019.4mb 53f 55f
3:36 2 6 mph 1019.5mb 53f 57f
3:30 2 5 mph 1019.7mb 53f 57f
3:24 3 6 mph 1019.8mb 53f 57f
3:18 5 6 mph 1019.7mb 53f 57f
3:12 5 6 mph 1019.8mb 53f 57f
3:06 5 6 mph 1019.8mb 53f 57f
3:00 6 8 mph 1019.8mb 53f 57f
2:54 6 8 mph 1019.9mb 53f 57f
2:48 6 7 mph 1019.9mb 53f 57f
2:36 8 9 mph 1019.9mb 53f 58f
2:30 6 8 mph 1019.9mb 53f 59f
2:24 5 6 mph 1020mb 53f 59f
2:18 3 6 mph 1020mb 53f 59f
2:12 2 5 mph 1019.8mb 53f 59f
2:06 3 5 mph 1019.7mb 53f 59f
2:00 5 7 mph 1019.6mb 53f 59f
1:54 5 6 mph 1019.5mb 53f 60f
1:48 5 6 mph 1019.5mb 53f 60f
1:36 7 9 mph 1019.4mb 53f 60f
1:30 8 10 mph 1019.3mb 53f 59f
1:24 6 8 mph 1019.2mb 53f 60f
1:18 7 9 mph 1019.2mb 53f 59f
1:12 5 7 mph 1019.3mb 53f 59f
1:06 3 6 mph 1019.3mb 53f 59f
1:00 3 6 mph 1019.2mb 53f 59f
12:54 3 6 mph 1019.2mb 53f 59f
12:48 5 6 mph 1019.2mb 53f 59f
12:36 6 7 mph 1019mb 53f 59f
12:30 3 7 mph 1019mb 53f 59f
12:24 2 5 mph 1018.9mb 53f 59f
12:18 1 3 mph 1019.1mb 53f 59f
12:12 3 6 mph 1019.2mb 53f 59f
12:06 5 9 mph 1019.2mb 53f 59f
12:00 7 8 mph 1019.2mb 53f 59f
11:54 6 7 mph 1019.2mb 53f 59f
11:48 2 6 mph 1019.1mb 53f 59f
11:36 5 6 mph 1019mb 53f 59f
11:30 2 5 mph 1019mb 53f 58f
11:24 3 7 mph 1018.9mb 53f 58f
11:18 5 7 mph 1019mb 53f 58f
11:12 5 10 mph 1019mb 54f 58f
11:06 6 9 mph 1019.1mb 54f 58f
11:00 7 9 mph 1019.3mb 54f 57f
10:54 5 7 mph 1019.2mb 54f 57f
10:48  -  2 mph 1019.2mb 54f 56f
10:36 2 3 mph 1019mb 54f 56f
10:30 3 5 mph 1018.8mb 54f 56f
10:24 3 5 mph 1018.8mb 54f 56f
10:18 5
mph
1018.8mb 54f 56f
10:12 2 5 mph 1018.8mb 54f 56f
10:06 3 5 mph 1018.8mb 54f 56f
10:00 2 3 mph 1018.9mb 54f 56f
9:54  -  5 mph 1018.9mb 54f 56f
9:48 2 3 mph 1019mb 54f 56f
9:36 3 5 mph 1018.9mb 54f 55f
9:30 2 3 mph 1018.9mb 54f 55f
9:24 2 3 mph 1018.8mb 54f 55f
9:18 2 3 mph 1018.9mb 54f 55f
9:12 2 3 mph 1018.9mb 54f 55f
9:06 2 3 mph 1018.9mb 54f 56f
9:00 3 5 mph 1018.8mb 54f 56f
8:36 3 6 mph 1018.6mb 54f 56f
8:30 5 6 mph 1018.5mb 54f 56f
8:24 5 6 mph 1018.6mb 54f 56f
8:18 5 6 mph 1018.5mb 54f 56f
8:12 3 6 mph 1018.5mb 54f 56f
8:06 5 6 mph 1018.5mb 54f 56f
8:00 5 7 mph 1018.5mb 54f 56f
7:54 5 6 mph 1018.5mb 54f 56f
7:48 3 6 mph 1018.4mb 54f 56f
7:36 3 6 mph 1018.4mb 54f 56f
7:30 5 7 mph 1018.4mb 54f 57f
7:24 5 7 mph 1018.3mb 54f 57f
7:18 6 8 mph 1018.3mb 54f 57f
7:12 5 6 mph 1018.2mb 54f 57f
7:06 5 6 mph 1018.2mb 54f 57f
7:00 5 6 mph 1018.2mb 54f 57f
6:54 3 6 mph 1018mb 54f 56f
6:48 5 7 mph 1018mb 54f 56f
6:36 5 7 mph 1018mb 54f 56f
6:30 7 10 mph 1017.9mb 54f 56f
6:24 5 9 mph 1017.8mb 54f 56f
6:18 6 11 mph 1017.8mb 54f 56f
6:12 6 10 mph 1017.6mb 54f 56f
6:06 5 7 mph 1017.5mb 54f 56f
6:00 6 10 mph 1017.6mb 54f 56f
5:54 6 9 mph 1017.5mb 54f 56f
5:48 6 8 mph 1017.5mb 54f 56f
5:36 6 9 mph 1017.4mb 54f 56f
5:30 5 8 mph 1017.4mb 54f 56f
5:24 8 11 mph 1017.3mb 54f 57f
5:18 6 8 mph 1017.3mb 54f 57f
5:12 6 13 mph 1017.2mb 54f 57f
5:06 13 17 mph 1017.1mb 54f 58f
5:00 14 18 mph 1017mb 54f 58f
4:54 13 18 mph 1017mb 54f 58f
4:48 13 15 mph 1016.9mb 54f 58f
4:36 9 16 mph 1017mb 54f 57f
4:30 13 17 mph 1017mb 54f 58f
4:24 13 18 mph 1017mb 54f 58f
4:18 15 18 mph 1016.9mb 54f 58f
4:12 15 18 mph 1016.8mb 54f 57f
4:06 13 17 mph 1016.7mb 54f 57f
4:00 13 20 mph 1016.6mb 54f 57f
3:54 10 17 mph 1016.5mb 54f 57f
3:48 16 21 mph 1016.6mb 54f 57f
3:36 13 18 mph 1016.6mb 54f 57f
3:30 8 17 mph 1016.5mb 54f 57f
3:24 13 16 mph 1016.6mb 54f 57f
3:18 9 14 mph 1016.5mb 54f 57f
3:12 8 18 mph 1016.4mb 54f 57f
3:06 15 20 mph 1016.4mb 54f 56f
3:00 16 20 mph 1016.4mb 54f 56f
2:54 14 16 mph 1016.4mb 54f 56f
2:48 13 15 mph 1016.4mb 54f 56f
2:36 10 14 mph 1016.3mb 54f 56f
2:30 9 13 mph 1016.3mb 54f 56f
2:24 6 10 mph 1016.2mb 54f 56f
2:18 10 11 mph 1016.1mb 54f 56f
2:12 13 14 mph 1016mb 54f 56f
2:06 13 16 mph 1016mb 54f 56f
2:00 6 11 mph 1016mb 54f 56f
1:54 8 13 mph 1015.9mb 54f 56f
1:48 11 14 mph 1015.8mb 54f 56f
1:36 13 14 mph 1015.8mb 54f 56f
1:30 11 13 mph 1015.8mb 54f 56f
1:24 10 13 mph 1015.7mb 54f 56f
1:18 9 11 mph 1015.6mb 54f 56f
1:12 6 9 mph 1015.6mb 54f 56f
1:06 6 11 mph 1015.5mb 54f 57f
1:00 9 13 mph 1015.4mb 54f 57f
12:54 11 15 mph 1015.4mb 54f 57f
12:48 11 14 mph 1015.5mb 54f 57f
12:36 6 8 mph 1015.3mb 54f 57f
12:30 6 8 mph 1015.2mb 54f 57f
12:24 3 6 mph 1015.2mb 54f 58f
12:18 5 6 mph 1015mb 54f 58f
12:12 1 5 mph 1014.9mb 54f 58f
12:06 6 9 mph 1014.8mb 54f 58f
12:00 7 11 mph 1014.8mb 54f 58f
sáb 08/27 11:54 8 13 mph 1014.7mb 54f 58f
11:48 8 14 mph 1014.7mb 54f 58f
11:36 8 10 mph 1014.7mb 54f 58f
11:30 10 13 mph 1014.6mb 54f 58f
11:24 8 13 mph 1014.5mb 54f 58f
11:18 9 15 mph 1014.4mb 54f 58f
11:12 5 9 mph 1014.4mb 54f 58f
11:06 7 9 mph 1014.4mb 54f 58f
11:00 7 9 mph 1014.4mb 54f 58f
10:54 9 14 mph 1014.3mb 54f 58f
10:48 13 16 mph 1014.2mb 54f 58f
10:36 14 17 mph 1014mb 54f 59f
10:30 14 16 mph 1013.9mb 54f 59f
10:24 16 22 mph 1013.9mb 54f 59f
10:18 17 22 mph 1013.8mb 54f 59f
10:12 14 16 mph 1013.7mb 54f 59f
10:06 9 14 mph 1013.7mb 54f 59f
10:00 5 9 mph 1013.7mb 54f 58f
9:54 6 10 mph 1013.7mb 54f 59f